createdAt,value
2022-11-24T00:01:53.146Z,5.80
2022-11-24T00:04:22.645Z,5.83
2022-11-24T00:06:53.427Z,6.93
2022-11-24T00:09:25.585Z,5.83
2022-11-24T00:11:55.031Z,6.13
2022-11-24T00:14:25.007Z,6.57
2022-11-24T00:16:54.524Z,7.03
2022-11-24T00:19:24.169Z,5.70
2022-11-24T00:21:53.673Z,6.00
2022-11-24T00:24:25.802Z,5.30
2022-11-24T00:26:55.222Z,5.27
2022-11-24T00:29:24.649Z,6.23
2022-11-24T00:31:54.135Z,7.53
2022-11-24T00:34:23.557Z,5.03
2022-11-24T00:36:53.065Z,6.07
2022-11-24T00:39:26.239Z,5.90
2022-11-24T00:41:55.662Z,6.00
2022-11-24T00:44:25.236Z,5.57
2022-11-24T00:46:54.747Z,6.10
2022-11-24T00:49:24.272Z,6.20
2022-11-24T00:51:53.832Z,6.40
2022-11-24T00:54:26.301Z,6.87
2022-11-24T00:56:55.739Z,6.70
2022-11-24T00:59:25.182Z,6.70
2022-11-24T01:01:55.003Z,6.10
2022-11-24T01:04:24.684Z,6.80
2022-11-24T01:06:54.063Z,6.67
2022-11-24T01:09:26.943Z,6.17
2022-11-24T01:12:05.153Z,5.50
2022-11-24T01:14:35.718Z,6.50
2022-11-24T01:17:05.596Z,6.97
2022-11-24T01:19:35.189Z,6.23
2022-11-24T01:22:04.940Z,5.87
2022-11-24T01:24:36.934Z,6.30
2022-11-24T01:27:06.440Z,5.93
2022-11-24T01:29:36.205Z,6.50
2022-11-24T01:32:05.647Z,6.53
2022-11-24T01:34:35.360Z,6.10
2022-11-24T01:37:05.131Z,9.10
2022-11-24T01:39:37.151Z,6.70
2022-11-24T01:42:06.688Z,5.80
2022-11-24T01:44:36.642Z,7.33
2022-11-24T01:47:08.987Z,8.60
2022-11-24T01:49:42.031Z,6.57
2022-11-24T01:52:15.385Z,6.67
2022-11-24T01:54:51.484Z,6.43
2022-11-24T01:57:24.141Z,9.60
2022-11-24T01:59:55.681Z,6.90
2022-11-24T02:02:25.293Z,7.03
2022-11-24T02:04:55.015Z,7.30
2022-11-24T02:07:24.617Z,6.80
2022-11-24T02:09:58.841Z,7.00
2022-11-24T02:12:29.605Z,6.90
2022-11-24T02:14:59.101Z,6.80
2022-11-24T02:17:28.502Z,6.97
2022-11-24T02:19:59.717Z,7.43
2022-11-24T02:22:35.985Z,6.70
2022-11-24T02:25:12.943Z,7.00
2022-11-24T02:27:50.687Z,7.87
2022-11-24T02:30:23.478Z,6.93
2022-11-24T02:32:52.995Z,7.30
2022-11-24T02:35:23.031Z,6.40
2022-11-24T02:37:52.426Z,6.93
2022-11-24T02:40:25.514Z,6.87
2022-11-24T02:42:59.497Z,6.87
2022-11-24T02:45:29.463Z,6.60
2022-11-24T02:47:58.845Z,6.90
2022-11-24T02:50:28.645Z,7.17
2022-11-24T02:52:58.032Z,8.43
2022-11-24T02:55:27.516Z,6.77
2022-11-24T02:57:59.469Z,6.37
2022-11-24T03:00:28.874Z,6.67
2022-11-24T03:02:58.287Z,6.47
2022-11-24T03:05:27.693Z,6.30
2022-11-24T03:07:57.142Z,7.07
2022-11-24T03:10:28.491Z,6.30
2022-11-24T03:13:00.828Z,7.67
2022-11-24T03:15:30.307Z,6.47
2022-11-24T03:17:59.834Z,6.70
2022-11-24T03:20:29.372Z,6.27
2022-11-24T03:22:59.740Z,6.60
2022-11-24T03:25:29.174Z,7.00
2022-11-24T03:28:01.312Z,6.43
2022-11-24T03:30:30.780Z,6.43
2022-11-24T03:33:00.228Z,6.93
2022-11-24T03:35:29.671Z,6.00
2022-11-24T03:37:59.059Z,5.07
2022-11-24T03:40:28.486Z,6.67
2022-11-24T03:42:57.896Z,6.47
2022-11-24T03:45:46.503Z,7.63
2022-11-24T03:48:16.188Z,7.57
2022-11-24T03:50:45.763Z,6.90
2022-11-24T03:53:15.283Z,8.03
2022-11-24T03:55:46.005Z,6.63
2022-11-24T03:58:15.396Z,6.47
2022-11-24T04:00:48.451Z,7.73
2022-11-24T04:03:17.897Z,8.43
2022-11-24T04:05:47.422Z,7.20
2022-11-24T04:08:17.620Z,6.07
2022-11-24T04:10:47.140Z,6.40
2022-11-24T04:13:15.943Z,7.57
2022-11-24T04:15:48.063Z,7.40
2022-11-24T04:18:17.511Z,5.90
2022-11-24T04:20:47.225Z,7.00
2022-11-24T04:23:16.887Z,7.40
2022-11-24T04:25:46.363Z,7.80
2022-11-24T04:28:16.022Z,7.07
2022-11-24T04:30:48.351Z,7.23
2022-11-24T04:33:17.725Z,10.27
2022-11-24T04:35:47.106Z,6.40
2022-11-24T04:39:24.333Z,7.80
2022-11-24T04:41:06.335Z,6.70
2022-11-24T04:43:40.395Z,7.20
2022-11-24T04:46:14.314Z,7.33
2022-11-24T04:48:44.633Z,9.00
2022-11-24T04:51:16.101Z,7.10
2022-11-24T04:53:45.706Z,8.17
2022-11-24T04:56:15.122Z,6.60
2022-11-24T04:58:44.542Z,6.70
2022-11-24T05:01:16.545Z,6.20
2022-11-24T05:03:46.152Z,6.70
2022-11-24T05:06:15.607Z,6.77
2022-11-24T05:08:44.968Z,7.73
2022-11-24T05:11:14.394Z,6.60
2022-11-24T05:13:43.884Z,6.47
2022-11-24T05:16:15.941Z,6.57
2022-11-24T05:18:45.460Z,6.90
2022-11-24T05:21:14.852Z,7.20
2022-11-24T05:23:44.751Z,7.03
2022-11-24T05:26:17.046Z,6.77
2022-11-24T05:28:46.798Z,6.27
2022-11-24T05:31:19.048Z,6.57
2022-11-24T05:33:48.566Z,6.60
2022-11-24T05:36:30.243Z,6.80
2022-11-24T05:38:59.841Z,6.63
2022-11-24T05:41:29.568Z,7.27
2022-11-24T05:44:00.100Z,5.63
2022-11-24T05:46:32.092Z,7.00
2022-11-24T05:49:01.533Z,7.43
2022-11-24T05:51:31.354Z,5.97
2022-11-24T05:54:00.801Z,6.60
2022-11-24T05:56:30.210Z,6.70
2022-11-24T05:58:59.649Z,6.13
2022-11-24T06:01:29.138Z,6.63
2022-11-24T06:04:01.191Z,6.07
2022-11-24T06:06:30.675Z,6.60
2022-11-24T06:09:00.164Z,6.30
2022-11-24T06:11:29.606Z,6.70
2022-11-24T06:13:59.328Z,6.50
2022-11-24T06:16:28.965Z,6.27
2022-11-24T06:19:00.954Z,6.07
2022-11-24T06:21:30.789Z,6.90
2022-11-24T06:24:00.234Z,6.73
2022-11-24T06:26:29.689Z,6.60
2022-11-24T06:28:59.153Z,7.50
2022-11-24T06:31:28.723Z,7.60
2022-11-24T06:34:01.402Z,6.70
2022-11-24T06:36:30.927Z,7.13
2022-11-24T06:39:00.436Z,7.17
2022-11-24T06:41:30.182Z,6.93
2022-11-24T06:43:59.702Z,7.00
2022-11-24T06:46:29.285Z,6.73
2022-11-24T06:49:02.485Z,7.53
2022-11-24T06:51:32.004Z,6.70
2022-11-24T06:54:01.734Z,8.07
2022-11-24T06:56:31.213Z,6.50
2022-11-24T06:59:00.694Z,7.27
2022-11-24T07:01:32.316Z,8.50
2022-11-24T07:04:04.520Z,6.10
2022-11-24T07:06:34.171Z,7.63
2022-11-24T07:09:03.567Z,6.73
2022-11-24T07:11:32.978Z,7.80
2022-11-24T07:14:02.419Z,7.17
2022-11-24T07:16:32.172Z,7.93
2022-11-24T07:19:04.263Z,7.60
2022-11-24T07:21:33.704Z,7.27
2022-11-24T07:24:03.109Z,7.30
2022-11-24T07:26:37.136Z,7.77
2022-11-24T07:29:07.620Z,7.67
2022-11-24T07:31:37.206Z,6.83
2022-11-24T07:34:09.213Z,7.30
2022-11-24T07:36:38.613Z,8.50
2022-11-24T07:39:09.031Z,7.70
2022-11-24T07:41:38.521Z,7.10
2022-11-24T07:44:08.620Z,7.37
2022-11-24T07:46:38.006Z,8.23
2022-11-24T07:49:10.022Z,8.27
2022-11-24T07:51:39.609Z,8.23
2022-11-24T07:54:09.185Z,8.53
2022-11-24T07:56:38.619Z,10.40
2022-11-24T07:59:08.372Z,9.17
2022-11-24T08:01:38.061Z,7.53
2022-11-24T08:04:10.437Z,7.73
2022-11-24T08:06:44.672Z,9.47
2022-11-24T08:09:16.691Z,7.90
2022-11-24T08:11:46.094Z,9.37
2022-11-24T08:14:15.524Z,7.90
2022-11-24T08:16:47.903Z,8.00
2022-11-24T08:19:20.118Z,9.33
2022-11-24T08:21:49.617Z,7.83
2022-11-24T08:24:19.140Z,9.87
2022-11-24T08:26:48.548Z,9.90
2022-11-24T08:29:18.008Z,9.47
2022-11-24T08:31:47.543Z,9.23
2022-11-24T08:34:17.070Z,8.87
2022-11-24T08:36:49.078Z,9.37
2022-11-24T08:39:19.036Z,9.60
2022-11-24T08:41:48.478Z,10.93
2022-11-24T08:44:18.324Z,10.40
2022-11-24T08:46:48.028Z,10.20
2022-11-24T08:49:18.844Z,10.47
2022-11-24T08:51:51.354Z,10.47
2022-11-24T08:54:21.694Z,11.00
2022-11-24T08:56:52.119Z,9.90
2022-11-24T08:59:21.616Z,11.07
2022-11-24T09:01:51.223Z,9.50
2022-11-24T09:04:20.753Z,9.13
2022-11-24T09:06:52.746Z,11.97
2022-11-24T09:09:22.482Z,9.53
2022-11-24T09:11:51.875Z,9.33
2022-11-24T09:14:24.419Z,8.60
2022-11-24T09:16:53.978Z,7.70
2022-11-24T09:19:23.409Z,9.13
2022-11-24T09:21:55.425Z,7.40
2022-11-24T09:24:24.971Z,8.17
2022-11-24T09:26:57.047Z,8.40
2022-11-24T09:29:26.651Z,8.60
2022-11-24T09:31:56.042Z,8.30
2022-11-24T09:34:25.455Z,7.47
2022-11-24T09:36:58.743Z,8.17
2022-11-24T09:39:28.169Z,8.93
2022-11-24T09:42:06.503Z,7.30
2022-11-24T09:44:48.565Z,7.80
2022-11-24T09:47:23.635Z,8.47
2022-11-24T09:49:58.374Z,11.40
2022-11-24T09:52:41.100Z,9.60
2022-11-24T09:55:22.974Z,7.83
2022-11-24T09:57:57.584Z,8.80
2022-11-24T10:00:26.988Z,8.27
2022-11-24T10:02:56.424Z,7.70
2022-11-24T10:05:28.617Z,7.53
2022-11-24T10:08:09.239Z,7.83
2022-11-24T10:10:45.676Z,7.23
2022-11-24T10:13:28.061Z,9.53
2022-11-24T10:16:02.278Z,7.67
2022-11-24T10:18:41.049Z,7.33
2022-11-24T10:21:25.694Z,7.07
2022-11-24T10:24:09.990Z,8.07
2022-11-24T10:26:41.414Z,6.10
2022-11-24T10:29:19.964Z,6.77
2022-11-24T10:31:50.590Z,7.33
2022-11-24T10:34:21.420Z,7.47
2022-11-24T10:36:57.081Z,7.87
2022-11-24T10:39:33.245Z,6.93
2022-11-24T10:42:07.283Z,7.67
2022-11-24T10:44:36.733Z,7.77
2022-11-24T10:47:06.246Z,6.60
2022-11-24T10:49:35.992Z,6.90
2022-11-24T10:52:09.644Z,9.07
2022-11-24T10:54:57.004Z,7.70
2022-11-24T10:57:34.933Z,6.73
2022-11-24T11:00:06.743Z,8.50
2022-11-24T11:02:39.449Z,9.07
2022-11-24T11:05:35.223Z,10.30
2022-11-24T11:08:19.921Z,9.40
2022-11-24T11:10:53.428Z,7.83
2022-11-24T11:13:28.460Z,10.30
2022-11-24T11:15:58.825Z,7.80
2022-11-24T11:18:34.157Z,8.53
2022-11-24T11:21:04.832Z,8.27
2022-11-24T11:23:36.603Z,8.50
2022-11-24T11:26:37.466Z,9.97
2022-11-24T11:35:14.795Z,7.77
2022-11-24T11:37:44.465Z,7.67
2022-11-24T11:40:19.379Z,7.03
2022-11-24T11:43:02.504Z,8.40
2022-11-24T11:45:37.810Z,6.43
2022-11-24T11:48:22.991Z,7.70
2022-11-24T11:53:47.248Z,7.27
2022-11-24T11:56:25.229Z,7.97
2022-11-24T11:59:10.048Z,8.70
2022-11-24T12:02:01.916Z,7.80
2022-11-24T12:04:44.949Z,8.30
2022-11-24T12:07:28.625Z,7.60
2022-11-24T12:10:03.554Z,8.37
2022-11-24T12:13:03.911Z,9.80
2022-11-24T12:15:41.162Z,7.40
2022-11-24T12:18:56.022Z,7.40
2022-11-24T12:21:25.985Z,8.90
2022-11-24T12:24:03.267Z,7.20
2022-11-24T12:26:38.867Z,6.60
2022-11-24T12:29:29.614Z,7.00
2022-11-24T12:32:08.600Z,8.57
2022-11-24T12:34:48.347Z,7.67
2022-11-24T12:37:33.190Z,11.07
2022-11-24T12:40:07.224Z,9.27
2022-11-24T12:42:43.723Z,6.90
2022-11-24T12:45:18.308Z,6.83
2022-11-24T12:48:11.140Z,7.53
2022-11-24T12:50:42.582Z,7.03
2022-11-24T12:53:16.521Z,7.27
2022-11-24T12:55:46.605Z,7.67
2022-11-24T12:58:22.513Z,8.57
2022-11-24T13:01:01.295Z,7.40
2022-11-24T13:03:41.562Z,6.60
2022-11-24T13:06:16.122Z,6.93
2022-11-24T13:08:45.838Z,7.00
2022-11-24T13:11:40.561Z,7.50
2022-11-24T13:14:15.295Z,8.43
2022-11-24T13:19:48.981Z,6.00
2022-11-24T13:22:20.878Z,6.60
2022-11-24T13:25:07.341Z,7.10
2022-11-24T13:27:45.566Z,7.30
2022-11-24T13:30:56.828Z,6.80
2022-11-24T13:33:44.412Z,6.20
2022-11-24T13:36:35.366Z,6.33
2022-11-24T13:39:07.556Z,6.60
2022-11-24T13:42:42.492Z,6.37
2022-11-24T13:45:03.128Z,6.53
2022-11-24T13:47:50.296Z,6.87
2022-11-24T13:51:01.602Z,6.20
2022-11-24T13:53:36.160Z,7.80
2022-11-24T13:56:10.066Z,6.93
2022-11-24T13:58:40.319Z,8.20
2022-11-24T14:01:19.033Z,7.20
2022-11-24T14:04:28.061Z,7.00
2022-11-24T14:06:45.410Z,6.50
2022-11-24T14:09:36.912Z,7.13
2022-11-24T14:12:10.677Z,8.40
2022-11-24T14:14:40.446Z,7.20
2022-11-24T14:17:16.884Z,6.83
2022-11-24T14:19:47.596Z,6.40
2022-11-24T14:22:21.621Z,8.03
2022-11-24T14:25:01.190Z,7.00
2022-11-24T14:27:32.960Z,7.73
2022-11-24T14:30:03.672Z,7.50
2022-11-24T14:32:33.170Z,7.50
2022-11-24T14:35:02.710Z,7.30
2022-11-24T14:37:32.495Z,6.87
2022-11-24T14:40:04.535Z,7.90
2022-11-24T14:42:34.194Z,7.70
2022-11-24T14:45:04.434Z,8.13
2022-11-24T14:47:36.214Z,7.43
2022-11-24T14:50:14.695Z,6.93
2022-11-24T14:52:49.166Z,7.13
2022-11-24T14:55:32.240Z,8.67
2022-11-24T14:58:02.274Z,7.40
2022-11-24T15:00:33.719Z,8.00
2022-11-24T15:03:18.719Z,6.57
2022-11-24T15:05:56.322Z,6.13
2022-11-24T15:08:27.207Z,6.93
2022-11-24T15:11:04.058Z,5.97
2022-11-24T15:13:37.177Z,6.73
2022-11-24T15:16:09.472Z,5.90
2022-11-24T15:18:43.641Z,6.40
2022-11-24T15:21:18.812Z,6.20
2022-11-24T15:24:07.424Z,6.47
2022-11-24T15:26:42.176Z,6.57
2022-11-24T15:29:12.435Z,7.27
2022-11-24T15:31:46.309Z,5.50
2022-11-24T15:34:18.785Z,6.50
2022-11-24T15:36:48.224Z,5.80
2022-11-24T15:39:18.881Z,6.00
2022-11-24T15:41:51.319Z,6.70
2022-11-24T15:44:20.851Z,7.87
2022-11-24T15:46:51.650Z,8.70
2022-11-24T15:49:21.194Z,7.77
2022-11-24T15:51:51.007Z,7.60
2022-11-24T15:54:20.979Z,7.73
2022-11-24T15:56:53.010Z,7.30
2022-11-24T15:59:22.474Z,6.93
2022-11-24T16:01:52.570Z,7.10
2022-11-24T16:04:22.014Z,6.63
2022-11-24T16:06:51.417Z,7.00
2022-11-24T16:09:20.977Z,7.10
2022-11-24T16:11:52.971Z,6.60
2022-11-24T16:14:22.473Z,8.50
2022-11-24T16:16:52.101Z,8.90
2022-11-24T16:19:21.631Z,7.67
2022-11-24T16:21:51.051Z,6.50
2022-11-24T16:24:20.514Z,7.30
2022-11-24T16:26:49.927Z,7.80
2022-11-24T16:29:23.708Z,6.40
2022-11-24T16:31:54.416Z,6.80
2022-11-24T16:34:24.033Z,7.27
2022-11-24T16:36:53.494Z,8.10
2022-11-24T16:39:22.886Z,8.00
2022-11-24T16:41:52.239Z,7.07
2022-11-24T16:44:24.256Z,7.87
2022-11-24T16:46:53.664Z,6.40
2022-11-24T16:49:23.258Z,6.90
2022-11-24T16:51:52.633Z,7.00
2022-11-24T16:54:22.176Z,7.60
2022-11-24T16:56:51.547Z,6.50
2022-11-24T16:59:23.828Z,7.63
2022-11-24T17:01:53.342Z,7.37
2022-11-24T17:04:22.895Z,7.40
2022-11-24T17:06:52.302Z,8.40
2022-11-24T17:09:22.236Z,7.90
2022-11-24T17:11:51.608Z,8.50
2022-11-24T17:14:21.009Z,15.00
2022-11-24T17:16:53.154Z,9.80
2022-11-24T17:19:22.799Z,9.80
2022-11-24T17:21:52.363Z,10.67
2022-11-24T17:24:21.728Z,9.20
2022-11-24T17:26:52.266Z,8.40
2022-11-24T17:29:21.914Z,10.27
2022-11-24T17:31:54.178Z,8.60
2022-11-24T17:34:23.700Z,10.33
2022-11-24T17:36:53.128Z,10.07
2022-11-24T17:39:25.188Z,9.30
2022-11-24T17:41:54.642Z,10.53
2022-11-24T17:44:24.112Z,10.73
2022-11-24T17:46:56.166Z,10.47
2022-11-24T17:49:25.540Z,8.80
2022-11-24T17:51:55.093Z,10.67
2022-11-24T17:54:46.002Z,17.80
2022-11-24T17:57:13.860Z,9.73
2022-11-24T17:59:43.831Z,10.43
2022-11-24T18:02:16.147Z,10.97
2022-11-24T18:04:45.602Z,10.77
2022-11-24T18:07:15.065Z,10.90
2022-11-24T18:09:44.536Z,11.93
2022-11-24T18:12:13.983Z,12.60
2022-11-24T18:14:43.360Z,12.07
2022-11-24T18:17:15.327Z,12.73
2022-11-24T18:19:44.769Z,11.77
2022-11-24T18:22:14.229Z,11.23
2022-11-24T18:24:43.656Z,10.03
2022-11-24T18:27:13.068Z,10.73
2022-11-24T18:29:42.464Z,11.93
2022-11-24T18:32:11.973Z,19.70
2022-11-24T18:34:44.427Z,11.07
2022-11-24T18:37:16.370Z,55.30
2022-11-24T18:39:45.805Z,11.00
2022-11-24T18:42:15.296Z,9.50
2022-11-24T18:44:45.432Z,10.27
2022-11-24T18:47:17.153Z,11.17
2022-11-24T18:49:49.168Z,11.57
2022-11-24T18:52:18.536Z,10.37
2022-11-24T18:54:47.980Z,9.43
2022-11-24T18:57:17.385Z,10.50
2022-11-24T18:59:46.761Z,10.40
2022-11-24T19:02:16.188Z,9.40
2022-11-24T19:04:45.631Z,10.50
2022-11-24T19:07:17.906Z,10.23
2022-11-24T19:09:47.712Z,10.67
2022-11-24T19:12:17.145Z,9.97
2022-11-24T19:14:46.577Z,10.60
2022-11-24T19:17:15.998Z,12.33
2022-11-24T19:19:45.390Z,13.20
2022-11-24T19:22:18.191Z,11.07
2022-11-24T19:24:49.990Z,13.00
2022-11-24T19:27:21.180Z,10.77
2022-11-24T19:29:50.732Z,10.43
2022-11-24T19:32:20.147Z,10.60
2022-11-24T19:34:49.541Z,10.33
2022-11-24T19:37:22.665Z,9.77
2022-11-24T19:39:52.776Z,10.27
2022-11-24T19:42:22.185Z,10.37
2022-11-24T19:44:56.155Z,10.23
2022-11-24T19:47:26.028Z,10.63
2022-11-24T19:49:55.885Z,10.93
2022-11-24T19:52:27.936Z,12.37
2022-11-24T19:54:59.699Z,12.30
2022-11-24T19:57:29.230Z,12.43
2022-11-24T19:59:58.583Z,15.20
2022-11-24T20:02:29.449Z,11.70
2022-11-24T20:04:58.949Z,11.27
2022-11-24T20:07:30.950Z,11.17
2022-11-24T20:10:04.595Z,11.50
2022-11-24T20:12:35.649Z,10.30
2022-11-24T20:15:05.062Z,13.00
2022-11-24T20:17:34.558Z,10.83
2022-11-24T20:20:03.919Z,12.77
2022-11-24T20:22:35.927Z,11.50
2022-11-24T20:25:05.346Z,11.50
2022-11-24T20:27:35.124Z,12.73
2022-11-24T20:30:04.492Z,15.47
2022-11-24T20:32:33.914Z,13.20
2022-11-24T20:35:03.827Z,16.27
2022-11-24T20:37:35.819Z,15.20
2022-11-24T20:40:06.671Z,15.57
2022-11-24T20:42:37.423Z,17.20
2022-11-24T20:45:07.315Z,15.60
2022-11-24T20:47:36.874Z,15.50
2022-11-24T20:50:06.653Z,14.50
2022-11-24T20:52:38.645Z,14.67
2022-11-24T20:55:08.884Z,15.20
2022-11-24T20:57:38.329Z,21.40
2022-11-24T21:00:09.650Z,24.07
2022-11-24T21:02:39.196Z,17.53
2022-11-24T21:05:09.231Z,13.93
2022-11-24T21:07:41.357Z,12.73
2022-11-24T21:10:11.449Z,13.93
2022-11-24T21:12:40.858Z,22.37
2022-11-24T21:15:11.737Z,25.50
2022-11-24T21:17:41.562Z,17.13
2022-11-24T21:20:12.859Z,21.43
2022-11-24T21:22:44.843Z,18.20
2022-11-24T21:25:14.290Z,17.37
2022-11-24T21:27:43.652Z,17.40
2022-11-24T21:30:14.066Z,18.60
2022-11-24T21:32:43.423Z,16.30
2022-11-24T21:35:12.920Z,20.93
2022-11-24T21:37:44.895Z,14.27
2022-11-24T21:40:15.262Z,15.07
2022-11-24T21:42:44.682Z,19.60
2022-11-24T21:45:14.176Z,25.57
2022-11-24T21:47:46.482Z,17.63
2022-11-24T21:50:15.915Z,15.63
2022-11-24T21:52:47.914Z,18.40
2022-11-24T21:55:17.428Z,17.90
2022-11-24T21:57:46.889Z,14.33
2022-11-24T22:00:18.027Z,14.53
2022-11-24T22:02:47.459Z,15.50
2022-11-24T22:05:17.152Z,13.67
2022-11-24T22:07:50.264Z,15.37
2022-11-24T22:10:19.901Z,13.90
2022-11-24T22:12:49.348Z,14.20
2022-11-24T22:15:18.857Z,14.77
2022-11-24T22:17:48.301Z,16.13
2022-11-24T22:20:17.935Z,15.27
2022-11-24T22:22:49.942Z,15.17
2022-11-24T22:25:19.559Z,14.03
2022-11-24T22:27:49.003Z,14.93
2022-11-24T22:30:18.823Z,16.57
2022-11-24T22:32:48.203Z,30.30
2022-11-24T22:35:17.697Z,18.33
2022-11-24T22:37:49.658Z,18.47
2022-11-24T22:40:19.259Z,20.87
2022-11-24T22:42:48.696Z,17.37
2022-11-24T22:45:18.220Z,15.77
2022-11-24T22:47:47.588Z,14.70
2022-11-24T22:50:17.447Z,15.47
2022-11-24T22:52:49.341Z,15.23
2022-11-24T22:55:21.376Z,15.40
2022-11-24T22:57:53.298Z,16.30
2022-11-24T23:00:25.191Z,14.50
2022-11-24T23:02:54.722Z,18.30
2022-11-24T23:05:24.453Z,14.13
2022-11-24T23:07:54.307Z,15.83
2022-11-24T23:10:26.280Z,14.77
2022-11-24T23:12:56.654Z,16.00
2022-11-24T23:15:26.084Z,13.83
2022-11-24T23:17:55.489Z,14.73
2022-11-24T23:20:24.871Z,15.70
2022-11-24T23:22:56.942Z,15.00
2022-11-24T23:25:28.920Z,16.37
2022-11-24T23:27:58.351Z,17.10
2022-11-24T23:30:27.800Z,15.90
2022-11-24T23:32:57.451Z,16.07
2022-11-24T23:35:26.874Z,21.70
2022-11-24T23:38:11.068Z,15.60
2022-11-24T23:40:43.112Z,15.53
2022-11-24T23:43:12.789Z,19.47
2022-11-24T23:45:42.295Z,18.07
2022-11-24T23:48:11.693Z,24.20
2022-11-24T23:50:41.091Z,17.90
2022-11-24T23:53:10.505Z,18.40
2022-11-24T23:55:39.889Z,28.40
2022-11-24T23:58:11.863Z,17.33
